sensor_id;sensor_type;location;lat;lon;timestamp;pressure;altitude;pressure_sealevel;temperature;humidity
28344;BME280;15597;50.914;6.638;2023-03-09T00:00:41;98183.97;;;8.83;59.47
28344;BME280;15597;50.914;6.638;2023-03-09T00:03:06;98183.06;;;8.84;59.25
28344;BME280;15597;50.914;6.638;2023-03-09T00:05:51;98183.22;;;8.81;59.65
28344;BME280;15597;50.914;6.638;2023-03-09T00:08:17;98165.88;;;8.80;60.01
28344;BME280;15597;50.914;6.638;2023-03-09T00:10:42;98160.06;;;8.75;59.47
28344;BME280;15597;50.914;6.638;2023-03-09T00:13:08;98147.19;;;8.72;59.52
28344;BME280;15597;50.914;6.638;2023-03-09T00:15:34;98153.25;;;8.72;59.88
28344;BME280;15597;50.914;6.638;2023-03-09T00:18:00;98157.47;;;8.75;59.95
28344;BME280;15597;50.914;6.638;2023-03-09T00:20:25;98147.78;;;8.77;59.60
28344;BME280;15597;50.914;6.638;2023-03-09T00:22:53;98135.84;;;8.73;59.67
28344;BME280;15597;50.914;6.638;2023-03-09T00:25:21;98135.91;;;8.71;59.36
28344;BME280;15597;50.914;6.638;2023-03-09T00:27:51;98133.25;;;8.73;59.41
28344;BME280;15597;50.914;6.638;2023-03-09T00:30:18;98127.88;;;8.76;59.51
28344;BME280;15597;50.914;6.638;2023-03-09T00:32:45;98125.16;;;8.77;59.56
28344;BME280;15597;50.914;6.638;2023-03-09T00:35:11;98128.53;;;8.80;59.51
28344;BME280;15597;50.914;6.638;2023-03-09T00:37:36;98131.97;;;8.80;59.12
28344;BME280;15597;50.914;6.638;2023-03-09T00:40:07;98140.63;;;8.81;58.99
28344;BME280;15597;50.914;6.638;2023-03-09T00:42:41;98143.41;;;8.77;59.74
28344;BME280;15597;50.914;6.638;2023-03-09T00:45:08;98151.06;;;8.81;59.48
28344;BME280;15597;50.914;6.638;2023-03-09T00:47:34;98156.97;;;8.84;59.86
28344;BME280;15597;50.914;6.638;2023-03-09T00:50:00;98156.81;;;8.87;59.60
28344;BME280;15597;50.914;6.638;2023-03-09T00:52:25;98164.47;;;8.90;60.10
28344;BME280;15597;50.914;6.638;2023-03-09T00:54:52;98172.13;;;8.94;59.55
28344;BME280;15597;50.914;6.638;2023-03-09T00:57:20;98158.16;;;8.95;60.12
28344;BME280;15597;50.914;6.638;2023-03-09T00:59:46;98160.75;;;8.95;59.87
28344;BME280;15597;50.914;6.638;2023-03-09T01:02:12;98160.66;;;8.96;59.77
28344;BME280;15597;50.914;6.638;2023-03-09T01:04:37;98165.06;;;8.96;59.38
28344;BME280;15597;50.914;6.638;2023-03-09T01:07:03;98173.66;;;8.98;60.07
28344;BME280;15597;50.914;6.638;2023-03-09T01:09:29;98175.31;;;8.99;60.14
28344;BME280;15597;50.914;6.638;2023-03-09T01:11:54;98177.00;;;9.00;59.86
28344;BME280;15597;50.914;6.638;2023-03-09T01:14:20;98178.69;;;9.01;59.84
28344;BME280;15597;50.914;6.638;2023-03-09T01:16:45;98184.78;;;9.01;60.00
28344;BME280;15597;50.914;6.638;2023-03-09T01:19:11;98184.78;;;9.01;59.86
28344;BME280;15597;50.914;6.638;2023-03-09T01:21:36;98180.53;;;8.99;60.00
28344;BME280;15597;50.914;6.638;2023-03-09T01:24:02;98193.59;;;8.99;60.15
28344;BME280;15597;50.914;6.638;2023-03-09T01:26:28;98203.25;;;8.97;60.11
28344;BME280;15597;50.914;6.638;2023-03-09T01:28:53;98203.41;;;8.94;59.63
28344;BME280;15597;50.914;6.638;2023-03-09T01:31:19;98197.50;;;8.90;59.49
28344;BME280;15597;50.914;6.638;2023-03-09T01:33:47;98197.59;;;8.88;59.65
28344;BME280;15597;50.914;6.638;2023-03-09T01:36:15;98195.16;;;8.85;59.43
28344;BME280;15597;50.914;6.638;2023-03-09T01:38:41;98193.31;;;8.87;59.83
28344;BME280;15597;50.914;6.638;2023-03-09T01:41:07;98202.88;;;8.87;59.94
28344;BME280;15597;50.914;6.638;2023-03-09T01:43:35;98197.66;;;8.87;59.38
28344;BME280;15597;50.914;6.638;2023-03-09T01:46:26;98200.38;;;8.85;59.95
28344;BME280;15597;50.914;6.638;2023-03-09T01:49:10;98206.53;;;8.84;59.85
28344;BME280;15597;50.914;6.638;2023-03-09T01:51:39;98209.78;;;8.88;59.43
28344;BME280;15597;50.914;6.638;2023-03-09T01:54:09;98212.50;;;8.86;59.72
28344;BME280;15597;50.914;6.638;2023-03-09T01:56:37;98221.25;;;8.85;59.54
28344;BME280;15597;50.914;6.638;2023-03-09T01:59:06;98223.91;;;8.84;59.87
28344;BME280;15597;50.914;6.638;2023-03-09T02:01:33;98233.53;;;8.83;59.80
28344;BME280;15597;50.914;6.638;2023-03-09T02:04:04;98235.38;;;8.81;60.32
28344;BME280;15597;50.914;6.638;2023-03-09T02:06:30;98250.16;;;8.81;59.92
28344;BME280;15597;50.914;6.638;2023-03-09T02:09:23;98266.97;;;8.75;59.67
28344;BME280;15597;50.914;6.638;2023-03-09T02:11:49;98284.63;;;8.70;59.60
28344;BME280;15597;50.914;6.638;2023-03-09T02:14:16;98298.03;;;8.62;59.79
28344;BME280;15597;50.914;6.638;2023-03-09T02:16:41;98314.13;;;8.53;59.87
28344;BME280;15597;50.914;6.638;2023-03-09T02:19:16;98332.94;;;8.40;59.86
28344;BME280;15597;50.914;6.638;2023-03-09T02:21:47;98342.91;;;8.32;60.09
28344;BME280;15597;50.914;6.638;2023-03-09T02:24:24;98344.31;;;8.20;60.52
28344;BME280;15597;50.914;6.638;2023-03-09T02:27:00;98353.50;;;8.10;60.37
28344;BME280;15597;50.914;6.638;2023-03-09T02:29:28;98359.91;;;8.02;60.58
28344;BME280;15597;50.914;6.638;2023-03-09T02:31:54;98361.13;;;7.95;60.48
28344;BME280;15597;50.914;6.638;2023-03-09T02:34:20;98355.13;;;7.93;60.35
28344;BME280;15597;50.914;6.638;2023-03-09T02:36:48;98354.50;;;7.88;60.45
28344;BME280;15597;50.914;6.638;2023-03-09T02:39:21;98354.78;;;7.82;60.76
28344;BME280;15597;50.914;6.638;2023-03-09T02:41:50;98354.94;;;7.79;60.69
28344;BME280;15597;50.914;6.638;2023-03-09T02:44:19;98369.00;;;7.74;61.01
28344;BME280;15597;50.914;6.638;2023-03-09T02:46:45;98369.13;;;7.71;61.17
28344;BME280;15597;50.914;6.638;2023-03-09T02:49:10;98373.50;;;7.71;60.84
28344;BME280;15597;50.914;6.638;2023-03-09T02:51:36;98374.34;;;7.71;60.77
28344;BME280;15597;50.914;6.638;2023-03-09T02:54:02;98379.56;;;7.71;60.76
28344;BME280;15597;50.914;6.638;2023-03-09T02:56:27;98376.09;;;7.71;60.49
28344;BME280;15597;50.914;6.638;2023-03-09T02:58:54;98383.06;;;7.70;60.84
28344;BME280;15597;50.914;6.638;2023-03-09T03:01:20;98391.66;;;7.72;60.79
28344;BME280;15597;50.914;6.638;2023-03-09T03:03:45;98403.75;;;7.73;60.76
28344;BME280;15597;50.914;6.638;2023-03-09T03:06:11;98406.28;;;7.75;60.75
28344;BME280;15597;50.914;6.638;2023-03-09T03:08:37;98407.13;;;7.75;60.75
28344;BME280;15597;50.914;6.638;2023-03-09T03:11:06;98415.78;;;7.76;61.20
28344;BME280;15597;50.914;6.638;2023-03-09T03:13:33;98412.34;;;7.75;60.74
28344;BME280;15597;50.914;6.638;2023-03-09T03:16:02;98427.97;;;7.75;60.63
28344;BME280;15597;50.914;6.638;2023-03-09T03:18:28;98437.47;;;7.77;60.78
28344;BME280;15597;50.914;6.638;2023-03-09T03:20:53;98438.38;;;7.75;60.86
28344;BME280;15597;50.914;6.638;2023-03-09T03:23:19;98433.31;;;7.72;60.56
28344;BME280;15597;50.914;6.638;2023-03-09T03:25:49;98433.44;;;7.69;60.68
28344;BME280;15597;50.914;6.638;2023-03-09T03:28:15;98431.75;;;7.68;60.70
28344;BME280;15597;50.914;6.638;2023-03-09T03:30:41;98440.47;;;7.67;61.06
28344;BME280;15597;50.914;6.638;2023-03-09T03:33:07;98438.78;;;7.66;61.02
28344;BME280;15597;50.914;6.638;2023-03-09T03:35:34;98445.69;;;7.67;61.05
28344;BME280;15597;50.914;6.638;2023-03-09T03:37:59;98441.25;;;7.69;60.71
28344;BME280;15597;50.914;6.638;2023-03-09T03:40:26;98435.13;;;7.70;61.10
28344;BME280;15597;50.914;6.638;2023-03-09T03:42:54;98434.13;;;7.73;61.06
28344;BME280;15597;50.914;6.638;2023-03-09T03:45:19;98450.47;;;7.77;60.62
28344;BME280;15597;50.914;6.638;2023-03-09T03:47:46;98466.88;;;7.79;60.52
28344;BME280;15597;50.914;6.638;2023-03-09T03:50:11;98465.88;;;7.81;60.73
28344;BME280;15597;50.914;6.638;2023-03-09T03:52:47;98472.88;;;7.81;60.63
28344;BME280;15597;50.914;6.638;2023-03-09T03:55:12;98469.34;;;7.82;60.31
28344;BME280;15597;50.914;6.638;2023-03-09T03:57:38;98477.22;;;7.80;60.45
28344;BME280;15597;50.914;6.638;2023-03-09T04:00:06;98479.75;;;7.82;60.80
28344;BME280;15597;50.914;6.638;2023-03-09T04:02:38;98490.03;;;7.85;60.45
28344;BME280;15597;50.914;6.638;2023-03-09T04:05:05;98499.53;;;7.86;60.42
28344;BME280;15597;50.914;6.638;2023-03-09T04:07:33;98505.53;;;7.88;60.62
28344;BME280;15597;50.914;6.638;2023-03-09T04:09:58;98510.72;;;7.88;60.49
28344;BME280;15597;50.914;6.638;2023-03-09T04:12:24;98495.25;;;7.85;60.79
28344;BME280;15597;50.914;6.638;2023-03-09T04:14:50;98516.06;;;7.85;60.81
28344;BME280;15597;50.914;6.638;2023-03-09T04:17:16;98509.03;;;7.87;60.34
28344;BME280;15597;50.914;6.638;2023-03-09T04:19:41;98520.38;;;7.86;60.45
28344;BME280;15597;50.914;6.638;2023-03-09T04:22:09;98517.78;;;7.86;60.99
28344;BME280;15597;50.914;6.638;2023-03-09T04:24:35;98519.47;;;7.87;60.68
28344;BME280;15597;50.914;6.638;2023-03-09T04:27:00;98519.59;;;7.84;60.79
28344;BME280;15597;50.914;6.638;2023-03-09T04:29:52;98511.06;;;7.80;60.87
28344;BME280;15597;50.914;6.638;2023-03-09T04:32:21;98512.69;;;7.83;60.69
28344;BME280;15597;50.914;6.638;2023-03-09T04:34:50;98516.91;;;7.85;60.46
28344;BME280;15597;50.914;6.638;2023-03-09T04:37:17;98522.91;;;7.87;60.09
28344;BME280;15597;50.914;6.638;2023-03-09T04:39:43;98515.94;;;7.88;60.43
28344;BME280;15597;50.914;6.638;2023-03-09T04:42:09;98516.78;;;7.88;60.28
28344;BME280;15597;50.914;6.638;2023-03-09T04:44:35;98522.84;;;7.89;60.23
28344;BME280;15597;50.914;6.638;2023-03-09T04:47:01;98537.56;;;7.90;60.15
28344;BME280;15597;50.914;6.638;2023-03-09T04:49:26;98543.53;;;7.92;60.08
28344;BME280;15597;50.914;6.638;2023-03-09T04:51:52;98561.75;;;7.92;60.26
28344;BME280;15597;50.914;6.638;2023-03-09T04:54:17;98559.03;;;7.95;60.57
28344;BME280;15597;50.914;6.638;2023-03-09T04:56:43;98554.69;;;7.96;60.03
28344;BME280;15597;50.914;6.638;2023-03-09T04:59:16;98543.41;;;7.95;60.22
28344;BME280;15597;50.914;6.638;2023-03-09T05:01:42;98546.00;;;7.95;60.34
28344;BME280;15597;50.914;6.638;2023-03-09T05:04:12;98541.66;;;7.96;60.39
28344;BME280;15597;50.914;6.638;2023-03-09T05:06:45;98546.66;;;8.00;60.43
28344;BME280;15597;50.914;6.638;2023-03-09T05:09:12;98550.91;;;8.03;60.24
28344;BME280;15597;50.914;6.638;2023-03-09T05:11:38;98562.16;;;8.03;59.94
28344;BME280;15597;50.914;6.638;2023-03-09T05:14:04;98566.44;;;8.04;60.13
28344;BME280;15597;50.914;6.638;2023-03-09T05:16:31;98570.75;;;8.06;59.76
28344;BME280;15597;50.914;6.638;2023-03-09T05:18:57;98572.50;;;8.05;60.09
28344;BME280;15597;50.914;6.638;2023-03-09T05:21:29;98583.91;;;8.02;59.67
28344;BME280;15597;50.914;6.638;2023-03-09T05:23:55;98583.13;;;8.00;59.59
28344;BME280;15597;50.914;6.638;2023-03-09T05:26:21;98576.34;;;7.96;60.25
28344;BME280;15597;50.914;6.638;2023-03-09T05:28:50;98582.41;;;7.97;60.34
28344;BME280;15597;50.914;6.638;2023-03-09T05:31:16;98581.56;;;7.96;60.32
28344;BME280;15597;50.914;6.638;2023-03-09T05:33:44;98586.75;;;7.96;60.04
28344;BME280;15597;50.914;6.638;2023-03-09T05:36:18;98586.75;;;7.96;60.00
28344;BME280;15597;50.914;6.638;2023-03-09T05:38:45;98590.16;;;7.98;59.99
28344;BME280;15597;50.914;6.638;2023-03-09T05:41:12;98590.94;;;8.00;60.38
28344;BME280;15597;50.914;6.638;2023-03-09T05:43:38;98577.06;;;8.00;59.90
28344;BME280;15597;50.914;6.638;2023-03-09T05:46:12;98582.19;;;8.01;59.93
28344;BME280;15597;50.914;6.638;2023-03-09T05:48:39;98587.28;;;8.04;59.93
28344;BME280;15597;50.914;6.638;2023-03-09T05:51:06;98588.06;;;8.07;59.78
28344;BME280;15597;50.914;6.638;2023-03-09T05:53:36;98591.44;;;8.09;59.74
28344;BME280;15597;50.914;6.638;2023-03-09T05:56:06;98600.03;;;8.11;59.77
28344;BME280;15597;50.914;6.638;2023-03-09T05:58:34;98602.59;;;8.12;59.69
28344;BME280;15597;50.914;6.638;2023-03-09T06:03:04;98603.78;;;8.05;59.88
28344;BME280;15597;50.914;6.638;2023-03-09T06:05:44;98610.72;;;8.04;59.56
28344;BME280;15597;50.914;6.638;2023-03-09T06:08:12;98622.84;;;8.06;59.85
28344;BME280;15597;50.914;6.638;2023-03-09T06:10:39;98616.66;;;8.08;59.55
28344;BME280;15597;50.914;6.638;2023-03-09T06:13:09;98633.00;;;8.12;59.61
28344;BME280;15597;50.914;6.638;2023-03-09T06:15:36;98639.88;;;8.13;59.82
28344;BME280;15597;50.914;6.638;2023-03-09T06:18:03;98648.44;;;8.16;59.59
28344;BME280;15597;50.914;6.638;2023-03-09T06:20:30;98645.88;;;8.15;59.69
28344;BME280;15597;50.914;6.638;2023-03-09T06:22:58;98658.06;;;8.14;59.45
28344;BME280;15597;50.914;6.638;2023-03-09T06:25:26;98660.59;;;8.16;59.62
28344;BME280;15597;50.914;6.638;2023-03-09T06:27:52;98672.72;;;8.17;59.81
28344;BME280;15597;50.914;6.638;2023-03-09T06:30:20;98667.50;;;8.17;59.59
28344;BME280;15597;50.914;6.638;2023-03-09T06:32:48;98671.03;;;8.16;59.40
28344;BME280;15597;50.914;6.638;2023-03-09T06:35:13;98676.19;;;8.17;59.81
28344;BME280;15597;50.914;6.638;2023-03-09T06:37:40;98684.00;;;8.17;59.55
28344;BME280;15597;50.914;6.638;2023-03-09T06:40:07;98685.75;;;8.17;59.57
28344;BME280;15597;50.914;6.638;2023-03-09T06:42:37;98684.00;;;8.17;59.35
28344;BME280;15597;50.914;6.638;2023-03-09T06:45:04;98676.19;;;8.17;59.71
28344;BME280;15597;50.914;6.638;2023-03-09T06:47:31;98685.81;;;8.15;59.93
28344;BME280;15597;50.914;6.638;2023-03-09T06:50:03;98690.16;;;8.15;59.52
28344;BME280;15597;50.914;6.638;2023-03-09T06:52:30;98686.66;;;8.16;59.66
28344;BME280;15597;50.914;6.638;2023-03-09T06:54:57;98690.16;;;8.15;60.08
28344;BME280;15597;50.914;6.638;2023-03-09T06:57:23;98704.09;;;8.14;59.77
28344;BME280;15597;50.914;6.638;2023-03-09T06:59:49;98722.34;;;8.14;59.79
28344;BME280;15597;50.914;6.638;2023-03-09T07:02:14;98719.75;;;8.14;59.82
28344;BME280;15597;50.914;6.638;2023-03-09T07:04:40;98725.81;;;8.14;59.75
28344;BME280;15597;50.914;6.638;2023-03-09T07:07:07;98734.41;;;8.16;59.76
28344;BME280;15597;50.914;6.638;2023-03-09T07:09:34;98739.53;;;8.18;59.77
28344;BME280;15597;50.914;6.638;2023-03-09T07:12:00;98736.94;;;8.18;59.64
28344;BME280;15597;50.914;6.638;2023-03-09T07:14:26;98745.66;;;8.17;59.86
28344;BME280;15597;50.914;6.638;2023-03-09T07:16:56;98753.69;;;8.12;59.83
28344;BME280;15597;50.914;6.638;2023-03-09T07:19:22;98758.94;;;8.11;60.31
28344;BME280;15597;50.914;6.638;2023-03-09T07:21:48;98763.38;;;8.09;60.11
28344;BME280;15597;50.914;6.638;2023-03-09T07:24:15;98768.56;;;8.09;60.05
28344;BME280;15597;50.914;6.638;2023-03-09T07:26:42;98770.28;;;8.10;59.85
28344;BME280;15597;50.914;6.638;2023-03-09T07:29:08;98775.47;;;8.10;60.00
28344;BME280;15597;50.914;6.638;2023-03-09T07:31:33;98791.09;;;8.10;60.03
28344;BME280;15597;50.914;6.638;2023-03-09T07:33:59;98791.91;;;8.12;60.20
28344;BME280;15597;50.914;6.638;2023-03-09T07:36:25;98787.59;;;8.11;60.60
28344;BME280;15597;50.914;6.638;2023-03-09T07:38:51;98787.59;;;8.11;60.08
28344;BME280;15597;50.914;6.638;2023-03-09T07:41:18;98785.00;;;8.11;60.40
28344;BME280;15597;50.914;6.638;2023-03-09T07:43:44;98791.06;;;8.11;60.34
28344;BME280;15597;50.914;6.638;2023-03-09T07:46:25;98790.16;;;8.12;60.62
28344;BME280;15597;50.914;6.638;2023-03-09T07:48:51;98794.44;;;8.13;60.79
28344;BME280;15597;50.914;6.638;2023-03-09T07:51:17;98800.44;;;8.15;60.58
28344;BME280;15597;50.914;6.638;2023-03-09T07:53:43;98812.56;;;8.16;60.47
28344;BME280;15597;50.914;6.638;2023-03-09T07:56:09;98813.41;;;8.17;60.57
28344;BME280;15597;50.914;6.638;2023-03-09T07:58:37;98810.00;;;8.15;60.38
28344;BME280;15597;50.914;6.638;2023-03-09T08:01:05;98812.63;;;8.15;60.48
28344;BME280;15597;50.914;6.638;2023-03-09T08:03:32;98812.63;;;8.15;60.58
28344;BME280;15597;50.914;6.638;2023-03-09T08:06:01;98825.63;;;8.15;60.62
28344;BME280;15597;50.914;6.638;2023-03-09T08:08:27;98827.34;;;8.16;60.38
28344;BME280;15597;50.914;6.638;2023-03-09T08:10:53;98829.03;;;8.17;60.73
28344;BME280;15597;50.914;6.638;2023-03-09T08:13:24;98841.16;;;8.18;60.67
28344;BME280;15597;50.914;6.638;2023-03-09T08:15:51;98832.41;;;8.19;61.00
28344;BME280;15597;50.914;6.638;2023-03-09T08:18:17;98846.22;;;8.21;60.85
28344;BME280;15597;50.914;6.638;2023-03-09T08:20:44;98844.50;;;8.22;60.63
28344;BME280;15597;50.914;6.638;2023-03-09T08:23:10;98849.63;;;8.23;60.65
28344;BME280;15597;50.914;6.638;2023-03-09T08:25:36;98851.31;;;8.24;60.75
28344;BME280;15597;50.914;6.638;2023-03-09T08:28:02;98859.94;;;8.26;60.86
28344;BME280;15597;50.914;6.638;2023-03-09T08:30:28;98857.28;;;8.28;60.80
28344;BME280;15597;50.914;6.638;2023-03-09T08:32:54;98860.66;;;8.30;61.03
28344;BME280;15597;50.914;6.638;2023-03-09T08:35:22;98871.94;;;8.30;60.75
28344;BME280;15597;50.914;6.638;2023-03-09T08:37:49;98878.84;;;8.31;61.06
28344;BME280;15597;50.914;6.638;2023-03-09T08:40:15;98883.91;;;8.34;61.14
28344;BME280;15597;50.914;6.638;2023-03-09T08:42:41;98894.22;;;8.38;61.05
28344;BME280;15597;50.914;6.638;2023-03-09T08:45:09;98885.50;;;8.39;61.09
28344;BME280;15597;50.914;6.638;2023-03-09T08:47:36;98890.59;;;8.42;61.03
28344;BME280;15597;50.914;6.638;2023-03-09T08:50:03;98889.75;;;8.41;60.73
28344;BME280;15597;50.914;6.638;2023-03-09T08:52:30;98894.09;;;8.41;60.64
28344;BME280;15597;50.914;6.638;2023-03-09T08:55:01;98905.50;;;8.38;60.82
28344;BME280;15597;50.914;6.638;2023-03-09T08:57:27;98902.00;;;8.39;61.20
28344;BME280;15597;50.914;6.638;2023-03-09T08:59:52;98913.25;;;8.40;60.96
28344;BME280;15597;50.914;6.638;2023-03-09T09:02:18;98911.56;;;8.39;60.67
28344;BME280;15597;50.914;6.638;2023-03-09T09:04:44;98918.47;;;8.40;61.05
28344;BME280;15597;50.914;6.638;2023-03-09T09:07:11;98918.47;;;8.40;61.12
28344;BME280;15597;50.914;6.638;2023-03-09T09:09:38;98918.34;;;8.43;61.18
28344;BME280;15597;50.914;6.638;2023-03-09T09:12:04;98928.78;;;8.43;61.11
28344;BME280;15597;50.914;6.638;2023-03-09T09:14:32;98938.28;;;8.44;61.16
28344;BME280;15597;50.914;6.638;2023-03-09T09:16:58;98932.16;;;8.45;61.21
28344;BME280;15597;50.914;6.638;2023-03-09T09:19:24;98930.34;;;8.47;61.29
28344;BME280;15597;50.914;6.638;2023-03-09T09:21:50;98940.72;;;8.48;61.23
28344;BME280;15597;50.914;6.638;2023-03-09T09:24:19;98932.00;;;8.51;61.02
28344;BME280;15597;50.914;6.638;2023-03-09T09:26:46;98947.50;;;8.54;61.32
28344;BME280;15597;50.914;6.638;2023-03-09T09:29:14;98948.28;;;8.56;61.27
28344;BME280;15597;50.914;6.638;2023-03-09T09:31:40;98950.78;;;8.59;61.35
28344;BME280;15597;50.914;6.638;2023-03-09T09:34:07;98950.66;;;8.62;61.48
28344;BME280;15597;50.914;6.638;2023-03-09T09:36:32;98955.66;;;8.67;61.59
28344;BME280;15597;50.914;6.638;2023-03-09T09:39:01;98962.53;;;8.70;61.44
28344;BME280;15597;50.914;6.638;2023-03-09T09:41:40;98962.53;;;8.70;61.27
28344;BME280;15597;50.914;6.638;2023-03-09T09:44:12;98962.41;;;8.73;61.36
28344;BME280;15597;50.914;6.638;2023-03-09T09:46:40;98960.59;;;8.75;61.18
28344;BME280;15597;50.914;6.638;2023-03-09T09:49:20;98965.84;;;8.73;61.26
28344;BME280;15597;50.914;6.638;2023-03-09T09:57:17;98976.94;;;8.79;61.94
28344;BME280;15597;50.914;6.638;2023-03-09T10:02:55;98977.63;;;8.84;62.13
28344;BME280;15597;50.914;6.638;2023-03-09T10:08:18;98987.88;;;8.88;61.63
28344;BME280;15597;50.914;6.638;2023-03-09T10:10:45;98987.88;;;8.88;61.41
28344;BME280;15597;50.914;6.638;2023-03-09T10:13:15;98996.47;;;8.90;61.69
28344;BME280;15597;50.914;6.638;2023-03-09T10:15:44;99006.78;;;8.94;61.06
28344;BME280;15597;50.914;6.638;2023-03-09T10:18:14;99010.19;;;8.96;62.01
28344;BME280;15597;50.914;6.638;2023-03-09T10:20:51;99010.84;;;9.01;61.67
28344;BME280;15597;50.914;6.638;2023-03-09T10:23:22;99015.03;;;9.05;61.86
28344;BME280;15597;50.914;6.638;2023-03-09T10:25:52;99009.69;;;9.08;61.54
28344;BME280;15597;50.914;6.638;2023-03-09T10:28:24;99007.88;;;9.10;61.54
28344;BME280;15597;50.914;6.638;2023-03-09T10:30:59;99011.25;;;9.12;61.89
28344;BME280;15597;50.914;6.638;2023-03-09T10:36:07;99013.50;;;9.21;61.67
28344;BME280;15597;50.914;6.638;2023-03-09T10:38:34;99016.63;;;9.30;62.03
28344;BME280;15597;50.914;6.638;2023-03-09T10:41:01;99024.22;;;9.36;61.42
28344;BME280;15597;50.914;6.638;2023-03-09T10:43:31;99018.84;;;9.39;61.35
28344;BME280;15597;50.914;6.638;2023-03-09T10:46:21;99019.00;;;9.36;61.58
28344;BME280;15597;50.914;6.638;2023-03-09T10:48:49;99031.13;;;9.37;61.61
28344;BME280;15597;50.914;6.638;2023-03-09T10:53:51;99036.09;;;9.43;61.65
28344;BME280;15597;50.914;6.638;2023-03-09T10:56:22;99033.31;;;9.48;61.78
28344;BME280;15597;50.914;6.638;2023-03-09T11:01:38;99031.09;;;9.59;61.65
28344;BME280;15597;50.914;6.638;2023-03-09T11:04:35;99026.66;;;9.61;61.57
28344;BME280;15597;50.914;6.638;2023-03-09T11:07:05;99028.16;;;9.67;61.26
28344;BME280;15597;50.914;6.638;2023-03-09T11:14:52;99025.94;;;9.78;61.88
28344;BME280;15597;50.914;6.638;2023-03-09T11:22:42;99017.19;;;9.79;61.45
28344;BME280;15597;50.914;6.638;2023-03-09T11:27:53;99024.38;;;9.74;61.27
28344;BME280;15597;50.914;6.638;2023-03-09T11:30:24;99025.94;;;9.78;61.08
28344;BME280;15597;50.914;6.638;2023-03-09T11:32:53;99017.81;;;9.85;61.12
28344;BME280;15597;50.914;6.638;2023-03-09T11:35:22;99020.31;;;9.88;61.81
28344;BME280;15597;50.914;6.638;2023-03-09T11:38:00;99026.31;;;9.90;61.19
28344;BME280;15597;50.914;6.638;2023-03-09T11:40:29;99027.09;;;9.92;61.24
28344;BME280;15597;50.914;6.638;2023-03-09T11:45:41;99027.00;;;9.93;61.53
28344;BME280;15597;50.914;6.638;2023-03-09T11:53:22;99024.22;;;9.77;61.57
28344;BME280;15597;50.914;6.638;2023-03-09T11:55:54;99021.53;;;9.79;61.12
28344;BME280;15597;50.914;6.638;2023-03-09T11:58:26;99015.41;;;9.80;61.49
28344;BME280;15597;50.914;6.638;2023-03-09T12:01:22;99012.59;;;9.85;61.86
28344;BME280;15597;50.914;6.638;2023-03-09T12:04:03;99012.25;;;9.92;61.19
28344;BME280;15597;50.914;6.638;2023-03-09T12:06:49;99007.75;;;9.96;61.20
28344;BME280;15597;50.914;6.638;2023-03-09T12:12:34;98992.84;;;9.98;60.91
28344;BME280;15597;50.914;6.638;2023-03-09T12:14:55;98993.00;;;9.95;61.08
28344;BME280;15597;50.914;6.638;2023-03-09T12:17:30;98998.13;;;9.97;60.68
28344;BME280;15597;50.914;6.638;2023-03-09T12:19:57;98993.50;;;10.03;60.81
28344;BME280;15597;50.914;6.638;2023-03-09T12:25:04;98988.25;;;10.03;61.19
28344;BME280;15597;50.914;6.638;2023-03-09T12:27:33;98982.03;;;10.06;60.18
28344;BME280;15597;50.914;6.638;2023-03-09T12:34:53;98989.84;;;10.27;60.83
28344;BME280;15597;50.914;6.638;2023-03-09T12:42:38;98994.28;;;10.25;61.71
28344;BME280;15597;50.914;6.638;2023-03-09T12:55:50;98972.88;;;10.35;61.32
28344;BME280;15597;50.914;6.638;2023-03-09T13:00:58;98962.25;;;10.38;61.18
28344;BME280;15597;50.914;6.638;2023-03-09T13:03:31;98958.03;;;10.36;61.32
28344;BME280;15597;50.914;6.638;2023-03-09T13:05:59;98945.69;;;10.40;61.09
28344;BME280;15597;50.914;6.638;2023-03-09T13:08:29;98946.56;;;10.38;60.62
28344;BME280;15597;50.914;6.638;2023-03-09T13:13:58;98948.69;;;10.30;61.17
28344;BME280;15597;50.914;6.638;2023-03-09T13:29:42;98967.91;;;10.29;62.30
28344;BME280;15597;50.914;6.638;2023-03-09T13:32:21;98962.41;;;10.35;61.50
28344;BME280;15597;50.914;6.638;2023-03-09T13:34:49;98953.38;;;10.43;61.33
28344;BME280;15597;50.914;6.638;2023-03-09T13:37:18;98946.56;;;10.40;61.93
28344;BME280;15597;50.914;6.638;2023-03-09T13:42:29;98924.09;;;10.34;61.67
28344;BME280;15597;50.914;6.638;2023-03-09T13:44:57;98918.88;;;10.34;61.36
28344;BME280;15597;50.914;6.638;2023-03-09T13:47:27;98920.56;;;10.35;61.35
28344;BME280;15597;50.914;6.638;2023-03-09T13:49:54;98926.56;;;10.37;61.73
28344;BME280;15597;50.914;6.638;2023-03-09T13:52:21;98922.94;;;10.42;61.35
28344;BME280;15597;50.914;6.638;2023-03-09T13:54:51;98920.44;;;10.38;61.73
28344;BME280;15597;50.914;6.638;2023-03-09T13:57:20;98920.44;;;10.38;61.23
28344;BME280;15597;50.914;6.638;2023-03-09T14:00:16;98920.44;;;10.38;61.54
28344;BME280;15597;50.914;6.638;2023-03-09T14:02:43;98922.00;;;10.43;61.89
28344;BME280;15597;50.914;6.638;2023-03-09T14:05:18;98915.81;;;10.45;62.06
28344;BME280;15597;50.914;6.638;2023-03-09T14:07:49;98920.59;;;10.55;62.52
28344;BME280;15597;50.914;6.638;2023-03-09T14:10:28;98934.84;;;10.66;62.92
28344;BME280;15597;50.914;6.638;2023-03-09T14:12:59;98922.69;;;10.65;61.66
28344;BME280;15597;50.914;6.638;2023-03-09T14:15:27;98918.91;;;10.71;62.57
28344;BME280;15597;50.914;6.638;2023-03-09T14:17:53;98914.88;;;10.83;62.95
28344;BME280;15597;50.914;6.638;2023-03-09T14:20:46;98916.25;;;10.90;62.72
28344;BME280;15597;50.914;6.638;2023-03-09T14:25:59;98907.00;;;11.01;62.21
28344;BME280;15597;50.914;6.638;2023-03-09T14:28:25;98908.63;;;11.03;61.81
28344;BME280;15597;50.914;6.638;2023-03-09T14:30:52;98905.78;;;11.08;62.32
28344;BME280;15597;50.914;6.638;2023-03-09T14:33:28;98901.16;;;11.13;62.90
28344;BME280;15597;50.914;6.638;2023-03-09T14:36:18;98900.69;;;11.22;63.19
28344;BME280;15597;50.914;6.638;2023-03-09T14:41:25;98893.13;;;11.34;62.40
28344;BME280;15597;50.914;6.638;2023-03-09T14:43:51;98887.50;;;11.42;63.12
28344;BME280;15597;50.914;6.638;2023-03-09T14:46:21;98888.16;;;11.45;62.86
28344;BME280;15597;50.914;6.638;2023-03-09T14:48:52;98885.97;;;11.53;62.85
28344;BME280;15597;50.914;6.638;2023-03-09T14:51:24;98874.59;;;11.54;62.75
28344;BME280;15597;50.914;6.638;2023-03-09T14:54:02;98884.06;;;11.57;62.96